Time;durP1;ratioP1;P1;durP2;ratioP2;P2;SDS_P1;SDS_P2;PMS_P1;PMS_P2;Temp;Humidity;BMP_temperature;BMP_pressure;BME280_temperature;BME280_humidity;BME280_pressure;Samples;Min_cycle;Max_cycle;Signal;HPM_P1;HPM_P2
2022/03/15 00:01:27;;;;;;;7.13;4.20;;;4.10;99.90;;;;;;5089702;28;20039;-53
2022/03/15 00:03:54;;;;;;;7.80;4.22;;;4.10;99.90;;;;;;5091363;28;20274;-55
2022/03/15 00:06:21;;;;;;;7.45;3.97;;;4.10;99.90;;;;;;5090090;28;20040;-53
2022/03/15 00:08:48;;;;;;;8.13;3.92;;;4.00;99.90;;;;;;5090497;28;20036;-51
2022/03/15 00:11:15;;;;;;;6.72;3.67;;;4.00;99.90;;;;;;5087878;28;20093;-51
2022/03/15 00:13:42;;;;;;;8.30;3.53;;;4.00;99.90;;;;;;5092307;28;20040;-53
2022/03/15 00:16:10;;;;;;;8.70;4.70;;;3.90;99.90;;;;;;5079519;28;20083;-51
2022/03/15 00:18:38;;;;;;;7.97;4.57;;;3.90;99.90;;;;;;5091766;28;20156;-55
2022/03/15 00:21:10;;;;;;;8.25;4.38;;;3.90;99.90;;;;;;5086335;28;20556;-54
2022/03/15 00:23:39;;;;;;;9.73;4.32;;;3.90;99.90;;;;;;5092330;28;20044;-52
2022/03/15 00:26:07;;;;;;;9.93;4.50;;;3.90;99.90;;;;;;5086707;28;20048;-52
2022/03/15 00:28:35;;;;;;;8.10;4.85;;;3.90;99.90;;;;;;5091218;28;20033;-51
2022/03/15 00:31:03;;;;;;;8.65;4.80;;;3.80;99.90;;;;;;5086346;28;20040;-55
2022/03/15 00:33:30;;;;;;;;;;;3.80;99.90;;;;;;5092241;28;20093;-53
2022/03/15 00:36:00;;;;;;;9.65;5.10;;;3.80;99.90;;;;;;5086584;28;19921;-52
2022/03/15 00:38:29;;;;;;;11.45;5.50;;;3.80;99.90;;;;;;5091334;28;20043;-53
2022/03/15 00:40:57;;;;;;;10.35;6.10;;;3.70;99.90;;;;;;5072568;28;20411;-53
2022/03/15 00:43:24;;;;;;;12.73;6.35;;;3.70;99.90;;;;;;5100736;28;20036;-51
2022/03/15 00:45:51;;;;;;;12.82;6.60;;;3.70;99.90;;;;;;5095626;28;20055;-51
2022/03/15 00:48:19;;;;;;;11.48;6.32;;;3.70;99.90;;;;;;5072892;28;20043;-52
2022/03/15 00:50:46;;;;;;;11.07;4.97;;;3.70;99.90;;;;;;5067767;28;20059;-50
2022/03/15 00:53:13;;;;;;;9.07;4.65;;;3.70;99.90;;;;;;5073745;28;20679;-53
2022/03/15 00:55:42;;;;;;;11.32;4.63;;;3.70;99.90;;;;;;5088008;28;20397;-55
2022/03/15 00:58:10;;;;;;;9.35;4.90;;;3.80;99.90;;;;;;5073132;28;20093;-53
2022/03/15 01:00:38;;;;;;;8.85;4.80;;;3.70;99.90;;;;;;5091732;28;20093;-55
2022/03/15 01:03:07;;;;;;;9.02;5.22;;;3.70;99.90;;;;;;5091331;28;20040;-52
2022/03/15 01:05:34;;;;;;;12.50;5.43;;;3.70;99.90;;;;;;5086570;28;20079;-53
2022/03/15 01:08:01;;;;;;;10.95;5.50;;;3.70;99.90;;;;;;5091547;28;20515;-54
2022/03/15 01:10:27;;;;;;;10.73;5.47;;;3.60;99.90;;;;;;5073361;28;20058;-50
2022/03/15 01:12:54;;;;;;;9.15;3.72;;;3.60;99.90;;;;;;5091216;28;20039;-51
2022/03/15 01:15:23;;;;;;;12.90;5.00;;;3.50;99.90;;;;;;5091632;28;20169;-50
2022/03/15 01:17:51;;;;;;;12.98;5.40;;;3.50;99.90;;;;;;5083534;28;20463;-52
2022/03/15 01:20:18;;;;;;;9.80;4.75;;;3.50;99.90;;;;;;5072595;28;20036;-52
2022/03/15 01:22:45;;;;;;;;;;;3.40;99.90;;;;;;5091673;28;20101;-51
2022/03/15 01:25:12;;;;;;;8.80;4.70;;;3.40;99.90;;;;;;5072865;28;19958;-51
2022/03/15 01:27:40;;;;;;;8.50;4.63;;;3.40;99.90;;;;;;5091406;28;20496;-53
2022/03/15 01:30:08;;;;;;;10.18;4.30;;;3.40;99.90;;;;;;5090753;28;20078;-56
2022/03/15 01:32:34;;;;;;;9.38;3.80;;;3.40;99.90;;;;;;5091326;28;20040;-55
2022/03/15 01:35:04;;;;;;;10.52;4.72;;;3.30;99.90;;;;;;5091557;28;20070;-53
2022/03/15 01:37:31;;;;;;;13.55;5.65;;;3.30;99.90;;;;;;5073540;28;20044;-52
2022/03/15 01:40:06;;;;;;;9.20;5.20;;;3.20;99.90;;;;;;5090715;28;20044;-51
2022/03/15 01:42:33;;;;;;;10.23;5.72;;;3.30;99.90;;;;;;5091268;28;20040;-55
2022/03/15 01:45:03;;;;;;;10.13;5.75;;;3.30;99.90;;;;;;5091478;28;20043;-53
2022/03/15 01:47:31;;;;;;;10.80;5.72;;;3.40;99.90;;;;;;5072332;28;20042;-51
2022/03/15 01:49:58;;;;;;;13.10;6.18;;;3.40;99.90;;;;;;5090888;28;20040;-51
2022/03/15 01:52:25;;;;;;;11.48;5.38;;;3.40;99.90;;;;;;5095054;28;20040;-53
2022/03/15 01:54:52;;;;;;;11.65;5.75;;;3.50;99.90;;;;;;5095281;28;20051;-52
2022/03/15 01:57:19;;;;;;;11.60;6.03;;;3.50;99.90;;;;;;5094644;28;20071;-52
2022/03/15 01:59:46;;;;;;;12.55;6.05;;;3.50;99.90;;;;;;5076716;28;20048;-52
2022/03/15 02:02:13;;;;;;;11.55;6.40;;;3.50;99.90;;;;;;5076776;28;20055;-53
2022/03/15 02:04:40;;;;;;;;;;;3.50;99.90;;;;;;5095460;28;20048;-53
2022/03/15 02:07:09;;;;;;;8.40;4.22;;;3.50;99.90;;;;;;5076269;28;20060;-53
2022/03/15 02:09:37;;;;;;;6.82;4.05;;;3.50;99.90;;;;;;5076491;28;20119;-55
2022/03/15 02:12:05;;;;;;;10.55;4.47;;;3.40;99.90;;;;;;5094847;28;20554;-52
2022/03/15 02:14:34;;;;;;;9.90;4.82;;;3.20;99.90;;;;;;5094344;28;20036;-51
2022/03/15 02:17:01;;;;;;;9.38;4.72;;;3.20;99.90;;;;;;5094541;28;20051;-53
2022/03/15 02:19:29;;;;;;;8.70;4.40;;;3.20;99.90;;;;;;5094560;28;20135;-51
2022/03/15 02:21:57;;;;;;;11.35;4.88;;;3.10;99.90;;;;;;5094601;28;20048;-53
2022/03/15 02:24:25;;;;;;;10.63;5.20;;;3.10;99.90;;;;;;5094200;28;20111;-57
2022/03/15 02:26:52;;;;;;;9.75;5.15;;;3.10;99.90;;;;;;5094571;28;20613;-52
2022/03/15 02:29:20;;;;;;;11.23;5.13;;;3.10;99.90;;;;;;5094389;28;20040;-55
2022/03/15 02:31:48;;;;;;;9.40;5.00;;;3.20;99.90;;;;;;5093959;28;20044;-53
2022/03/15 02:34:17;;;;;;;10.55;5.72;;;3.20;99.90;;;;;;5086778;28;20106;-51
2022/03/15 02:36:44;;;;;;;11.52;6.18;;;3.30;99.90;;;;;;5094462;28;20048;-53
2022/03/15 02:39:11;;;;;;;10.68;5.85;;;3.20;99.90;;;;;;5094218;28;20399;-50
2022/03/15 02:41:38;;;;;;;9.98;5.50;;;3.30;99.90;;;;;;5094032;28;20044;-51
2022/03/15 02:44:05;;;;;;;11.32;5.80;;;3.40;99.90;;;;;;5094041;28;20044;-53
2022/03/15 02:46:34;;;;;;;12.07;5.65;;;3.60;99.90;;;;;;5094052;28;20040;-54
2022/03/15 02:49:02;;;;;;;11.35;5.47;;;3.70;99.90;;;;;;5093329;28;20050;-54
2022/03/15 02:51:31;;;;;;;;;;;3.70;99.90;;;;;;5094812;28;20036;-52
2022/03/15 02:54:02;;;;;;;8.85;4.95;;;3.70;99.90;;;;;;5094205;28;19924;-52
2022/03/15 02:56:29;;;;;;;9.32;5.10;;;3.60;99.90;;;;;;5094053;28;20048;-53
2022/03/15 02:58:56;;;;;;;;;;;3.50;99.90;;;;;;5093627;28;20100;-51
2022/03/15 03:01:24;;;;;;;10.50;5.90;;;3.50;99.90;;;;;;5093991;28;19919;-53
2022/03/15 03:03:53;;;;;;;11.93;5.97;;;3.40;99.90;;;;;;5093112;28;20062;-51
2022/03/15 03:06:19;;;;;;;12.20;6.40;;;3.40;99.90;;;;;;5093143;28;20455;-53
2022/03/15 03:08:47;;;;;;;12.15;5.50;;;3.40;99.90;;;;;;5093519;28;20081;-53
2022/03/15 03:11:14;;;;;;;12.73;6.22;;;3.40;99.90;;;;;;5093905;28;20071;-50
2022/03/15 03:13:44;;;;;;;9.25;5.57;;;3.40;99.90;;;;;;5093271;28;20052;-53
2022/03/15 03:16:14;;;;;;;12.18;6.45;;;3.40;99.90;;;;;;5085632;28;20039;-53
2022/03/15 03:18:41;;;;;;;11.18;5.78;;;3.40;99.90;;;;;;5093520;28;20044;-52
2022/03/15 03:21:08;;;;;;;8.48;5.18;;;3.30;99.90;;;;;;5092769;28;20055;-55
2022/03/15 03:23:36;;;;;;;10.98;5.95;;;3.20;99.90;;;;;;5093615;28;20040;-51
2022/03/15 03:26:04;;;;;;;12.88;5.90;;;3.20;99.90;;;;;;5093743;28;20803;-54
2022/03/15 03:28:38;;;;;;;12.23;6.05;;;3.20;99.90;;;;;;5093418;28;20040;-53
2022/03/15 03:31:07;;;;;;;12.50;6.15;;;3.20;99.90;;;;;;5092699;28;20040;-56
2022/03/15 03:33:35;;;;;;;12.30;6.03;;;3.20;99.90;;;;;;5093514;28;20063;-53
2022/03/15 03:36:03;;;;;;;14.45;6.72;;;3.20;99.90;;;;;;5093305;28;20044;-52
2022/03/15 03:38:30;;;;;;;10.55;5.70;;;3.10;99.90;;;;;;5093106;28;20040;-53
2022/03/15 03:40:57;;;;;;;7.88;4.85;;;3.10;99.90;;;;;;5092575;28;20458;-54
2022/03/15 03:43:25;;;;;;;11.10;5.00;;;3.00;99.90;;;;;;5093425;28;20445;-51
2022/03/15 03:45:51;;;;;;;8.98;4.88;;;2.90;99.90;;;;;;5093226;28;20044;-54
2022/03/15 03:48:19;;;;;;;7.82;4.10;;;2.80;99.90;;;;;;5093122;28;20750;-51
2022/03/15 03:50:46;;;;;;;;;;;2.70;99.90;;;;;;5092474;28;20063;-51
2022/03/15 03:53:14;;;;;;;10.90;5.97;;;2.70;99.90;;;;;;5093153;28;20026;-55
2022/03/15 03:55:41;;;;;;;14.68;6.32;;;2.70;99.90;;;;;;5093020;28;20414;-53
2022/03/15 03:58:08;;;;;;;12.05;6.07;;;2.70;99.90;;;;;;5092201;28;20134;-53
2022/03/15 04:00:35;;;;;;;9.63;5.38;;;2.80;99.90;;;;;;5092589;28;20097;-52
2022/03/15 04:03:03;;;;;;;15.52;6.72;;;2.80;99.90;;;;;;5092898;28;20483;-54
2022/03/15 04:05:30;;;;;;;15.52;6.30;;;2.80;99.90;;;;;;5092262;28;20496;-52
2022/03/15 04:07:59;;;;;;;7.45;4.22;;;2.80;99.90;;;;;;5073944;28;20060;-55
2022/03/15 04:10:31;;;;;;;14.27;6.28;;;2.80;99.90;;;;;;5092576;28;20078;-55
2022/03/15 04:12:58;;;;;;;13.73;5.85;;;2.80;99.90;;;;;;5092642;28;20093;-52
2022/03/15 04:15:25;;;;;;;12.65;5.82;;;2.80;99.90;;;;;;5091823;28;20081;-53
2022/03/15 04:17:51;;;;;;;10.70;4.97;;;2.90;99.90;;;;;;5092345;28;20048;-53
2022/03/15 04:20:21;;;;;;;11.85;5.03;;;2.80;99.90;;;;;;5092640;28;20056;-52
2022/03/15 04:22:48;;;;;;;11.57;4.78;;;2.60;99.90;;;;;;5092487;28;20044;-53
2022/03/15 04:25:15;;;;;;;9.73;4.78;;;2.40;99.90;;;;;;5091900;28;20075;-53
2022/03/15 04:27:42;;;;;;;11.55;5.43;;;2.20;99.90;;;;;;5091978;28;20044;-55
2022/03/15 04:30:09;;;;;;;9.30;4.95;;;2.20;99.90;;;;;;5092036;28;20040;-51
2022/03/15 04:32:37;;;;;;;;;;;2.20;99.90;;;;;;5089215;28;20044;-51
2022/03/15 04:35:04;;;;;;;11.52;6.13;;;2.30;99.90;;;;;;5080921;28;19989;-51
2022/03/15 04:37:31;;;;;;;;;;;2.30;99.90;;;;;;5081196;28;20048;-53
2022/03/15 04:39:58;;;;;;;12.18;5.78;;;2.50;99.90;;;;;;5087213;28;19970;-52
2022/03/15 04:42:25;;;;;;;10.88;6.03;;;2.60;99.90;;;;;;5090288;28;20446;-53
2022/03/15 04:44:52;;;;;;;13.73;5.90;;;2.70;99.90;;;;;;5073527;28;20622;-54
2022/03/15 04:47:19;;;;;;;10.05;5.72;;;2.70;99.90;;;;;;5108124;22;20051;-60
2022/03/15 04:49:46;;;;;;;9.20;4.45;;;2.80;99.90;;;;;;5109533;27;20039;-60
2022/03/15 04:52:14;;;;;;;7.00;3.03;;;2.90;99.90;;;;;;5125332;27;20046;-60
2022/03/15 04:54:41;;;;;;;9.63;4.20;;;2.80;99.90;;;;;;5106510;28;20493;-60
2022/03/15 04:57:08;;;;;;;10.32;4.80;;;2.70;99.90;;;;;;5132506;27;20039;-60
2022/03/15 04:59:35;;;;;;;9.95;5.03;;;2.60;99.90;;;;;;5152970;27;20043;-60
2022/03/15 05:02:02;;;;;;;9.68;4.78;;;2.50;99.90;;;;;;5133738;27;20046;-60
2022/03/15 05:04:29;;;;;;;9.63;4.82;;;2.50;99.90;;;;;;5138453;27;20066;-60
2022/03/15 05:06:56;;;;;;;9.10;4.30;;;2.60;99.90;;;;;;5139421;27;20057;-60
2022/03/15 05:09:23;;;;;;;10.25;4.90;;;2.60;99.90;;;;;;5142749;27;20046;-60
2022/03/15 05:11:50;;;;;;;8.13;5.00;;;2.60;99.90;;;;;;5141256;27;20034;-60
2022/03/15 05:14:17;;;;;;;9.95;4.78;;;2.70;99.90;;;;;;5132506;27;20035;-60
2022/03/15 05:16:45;;;;;;;7.65;4.38;;;2.70;99.90;;;;;;5132111;27;20043;-59
2022/03/15 05:19:12;;;;;;;10.18;5.07;;;2.70;99.90;;;;;;5137966;27;20037;-60
2022/03/15 05:21:39;;;;;;;8.45;4.10;;;2.70;99.90;;;;;;5141270;27;20066;-60
2022/03/15 05:24:06;;;;;;;11.88;4.65;;;2.70;99.90;;;;;;5142830;27;20046;-60
2022/03/15 05:26:33;;;;;;;9.07;4.53;;;2.70;99.90;;;;;;5148986;27;20042;-60
2022/03/15 05:29:00;;;;;;;18.10;5.43;;;2.70;99.90;;;;;;5143924;27;20039;-60
2022/03/15 05:31:28;;;;;;;12.43;5.55;;;2.70;99.90;;;;;;5153491;27;20095;-60
2022/03/15 05:33:58;;;;;;;19.30;6.97;;;2.80;99.90;;;;;;5150865;27;20054;-60
2022/03/15 05:36:25;;;;;;;14.60;7.18;;;2.80;99.90;;;;;;5141141;27;20134;-60
2022/03/15 05:38:52;;;;;;;19.42;7.78;;;2.80;99.90;;;;;;5150046;27;20045;-60
2022/03/15 05:41:19;;;;;;;14.50;6.95;;;2.80;99.90;;;;;;5152991;27;20087;-60
2022/03/15 05:43:54;;;;;;;14.50;6.88;;;2.80;99.90;;;;;;5151121;27;20034;-59
2022/03/15 05:46:21;;;;;;;15.13;6.90;;;2.90;99.90;;;;;;5137417;27;20032;-59
2022/03/15 05:48:49;;;;;;;;;;;3.00;99.90;;;;;;5131801;28;20040;-59
2022/03/15 05:51:15;;;;;;;14.95;6.88;;;3.10;99.90;;;;;;5132118;28;19919;-60
2022/03/15 05:53:42;;;;;;;14.30;6.95;;;3.20;99.90;;;;;;5137789;27;20073;-59
2022/03/15 05:56:10;;;;;;;14.52;6.10;;;3.30;99.90;;;;;;5137740;27;20038;-59
2022/03/15 05:58:37;;;;;;;;;;;3.40;99.90;;;;;;5132320;28;20055;-59
2022/03/15 06:01:04;;;;;;;17.02;7.70;;;3.40;99.90;;;;;;5131858;28;19927;-61
2022/03/15 06:03:31;;;;;;;14.05;6.47;;;3.40;99.90;;;;;;5139928;27;20118;-62
2022/03/15 06:05:58;;;;;;;10.48;6.55;;;3.40;99.90;;;;;;5147387;27;20050;-61
2022/03/15 06:08:26;;;;;;;21.08;10.20;;;3.40;99.90;;;;;;5151471;27;20565;-61
2022/03/15 06:10:52;;;;;;;24.48;12.18;;;3.40;99.90;;;;;;5150711;27;20479;-61
2022/03/15 06:13:19;;;;;;;24.02;10.93;;;3.30;99.90;;;;;;5138064;27;20110;-61
2022/03/15 06:15:46;;;;;;;20.48;9.98;;;3.40;99.90;;;;;;5134022;27;20360;-61
2022/03/15 06:18:13;;;;;;;22.10;9.32;;;3.60;99.90;;;;;;5131512;27;20523;-61
2022/03/15 06:20:42;;;;;;;16.08;8.65;;;3.70;99.90;;;;;;5147578;27;20074;-61
2022/03/15 06:23:09;;;;;;;18.42;8.63;;;3.80;99.90;;;;;;5143862;27;20410;-61
2022/03/15 06:25:36;;;;;;;14.23;7.05;;;3.90;99.90;;;;;;5152490;27;20043;-61
2022/03/15 06:28:03;;;;;;;14.82;6.82;;;3.90;99.90;;;;;;5148761;27;20043;-59
2022/03/15 06:30:30;;;;;;;17.73;6.95;;;3.90;99.90;;;;;;5150268;27;20047;-61
2022/03/15 06:32:57;;;;;;;15.43;6.90;;;4.00;99.90;;;;;;5141572;27;20053;-60
2022/03/15 06:35:24;;;;;;;13.55;6.82;;;3.90;99.90;;;;;;5131698;28;20131;-59
2022/03/15 06:37:51;;;;;;;13.30;6.35;;;3.90;99.90;;;;;;5132440;27;20062;-61
2022/03/15 06:40:26;;;;;;;13.27;6.38;;;4.00;99.90;;;;;;5135257;27;20043;-60
2022/03/15 06:42:55;;;;;;;12.80;7.13;;;4.10;99.90;;;;;;5149473;27;20047;-60
2022/03/15 06:45:23;;;;;;;14.93;7.55;;;4.20;99.90;;;;;;5149217;27;20030;-61
2022/03/15 06:47:50;;;;;;;14.43;6.65;;;4.30;99.90;;;;;;5155010;27;20042;-61
2022/03/15 06:50:18;;;;;;;12.65;6.20;;;4.40;99.90;;;;;;5155077;27;20037;-61
2022/03/15 06:52:47;;;;;;;19.55;9.80;;;4.60;99.90;;;;;;5138123;27;20043;-61
2022/03/15 06:55:14;;;;;;;17.95;10.05;;;4.70;99.90;;;;;;5138237;27;20088;-62
2022/03/15 06:57:42;;;;;;;22.10;10.23;;;4.80;99.90;;;;;;5134454;27;20052;-61
2022/03/15 07:00:12;;;;;;;23.83;9.48;;;4.80;99.90;;;;;;5136301;27;20039;-61
2022/03/15 07:02:39;;;;;;;18.63;6.95;;;5.00;99.90;;;;;;5147461;27;20035;-61
2022/03/15 07:05:06;;;;;;;18.90;7.32;;;5.10;99.90;;;;;;5153731;27;20403;-61
2022/03/15 07:07:34;;;;;;;13.13;6.60;;;5.10;99.90;;;;;;5154484;27;20043;-61
2022/03/15 07:10:05;;;;;;;13.02;6.05;;;5.10;99.90;;;;;;5151748;27;20416;-61
2022/03/15 07:12:36;;;;;;;14.75;6.38;;;5.20;99.90;;;;;;5131611;27;20499;-61
2022/03/15 07:15:05;;;;;;;11.50;6.38;;;5.20;99.90;;;;;;5155451;27;20150;-61
2022/03/15 07:17:32;;;;;;;11.27;6.60;;;5.30;99.90;;;;;;5154340;27;20399;-61
2022/03/15 07:19:59;;;;;;;14.13;7.32;;;5.40;99.90;;;;;;5146446;27;20114;-61
2022/03/15 07:22:27;;;;;;;14.80;6.45;;;5.50;99.90;;;;;;5155106;27;20610;-61
2022/03/15 07:24:54;;;;;;;;;;;5.60;99.90;;;;;;5155773;27;20624;-61
2022/03/15 07:27:21;;;;;;;17.27;6.68;;;5.70;99.90;;;;;;5148784;27;19926;-61
2022/03/15 07:29:48;;;;;;;17.88;9.02;;;5.80;99.90;;;;;;5151729;27;20038;-61
2022/03/15 07:32:15;;;;;;;14.77;8.10;;;6.00;99.90;;;;;;5155260;27;20046;-61
2022/03/15 07:34:42;;;;;;;29.30;9.40;;;6.10;99.90;;;;;;5155018;27;20035;-61
2022/03/15 07:37:09;;;;;;;17.80;8.25;;;6.20;99.90;;;;;;5150324;27;20031;-61
2022/03/15 07:39:35;;;;;;;18.35;8.27;;;6.20;99.90;;;;;;5149740;27;20065;-61
2022/03/15 07:42:02;;;;;;;16.75;8.43;;;6.20;99.90;;;;;;5154941;27;20039;-61
2022/03/15 07:44:33;;;;;;;24.45;8.77;;;6.40;99.90;;;;;;5128155;27;20043;-61
2022/03/15 07:47:00;;;;;;;16.05;7.88;;;6.50;99.90;;;;;;5133881;27;20038;-61
2022/03/15 07:49:27;;;;;;;16.38;8.00;;;6.50;99.90;;;;;;5133121;27;20043;-61
2022/03/15 07:51:56;;;;;;;17.40;8.00;;;6.60;99.90;;;;;;5134048;27;20039;-61
2022/03/15 07:54:23;;;;;;;21.45;7.82;;;6.90;99.90;;;;;;5142661;27;20092;-61
2022/03/15 07:56:50;;;;;;;12.57;6.65;;;7.00;99.90;;;;;;5151842;27;20118;-61
2022/03/15 07:59:21;;;;;;;14.23;6.50;;;7.20;99.90;;;;;;5153961;27;20047;-61
2022/03/15 08:01:48;;;;;;;9.68;5.80;;;7.60;99.90;;;;;;5153719;27;20121;-61
2022/03/15 08:04:16;;;;;;;9.52;5.80;;;7.90;99.90;;;;;;5145773;27;20046;-61
2022/03/15 08:06:43;;;;;;;15.20;7.05;;;8.20;99.90;;;;;;5154480;27;20077;-61
2022/03/15 08:09:09;;;;;;;18.17;8.07;;;8.40;99.90;;;;;;5153028;27;20491;-61
2022/03/15 08:11:37;;;;;;;14.48;7.00;;;8.40;99.90;;;;;;5149250;27;20050;-61
2022/03/15 08:14:07;;;;;;;9.95;6.05;;;8.20;99.90;;;;;;5133989;27;20043;-61
2022/03/15 08:16:34;;;;;;;15.75;6.63;;;8.20;99.90;;;;;;5133474;27;20118;-61
2022/03/15 08:19:01;;;;;;;12.32;6.82;;;8.10;99.90;;;;;;5144559;27;20044;-61
2022/03/15 08:21:28;;;;;;;19.58;6.63;;;8.20;99.90;;;;;;5148309;27;20125;-61
2022/03/15 08:23:55;;;;;;;14.65;6.93;;;8.20;99.90;;;;;;5153890;27;20049;-61
2022/03/15 08:26:22;;;;;;;20.33;7.90;;;8.30;99.90;;;;;;5153074;27;20126;-61
2022/03/15 08:28:49;;;;;;;16.33;6.93;;;8.30;99.90;;;;;;5144851;27;20103;-61
2022/03/15 08:31:16;;;;;;;10.07;5.93;;;8.30;99.90;;;;;;5154074;27;20122;-61
2022/03/15 08:33:44;;;;;;;;;;;8.30;99.90;;;;;;5153490;27;20494;-61
2022/03/15 08:36:17;;;;;;;14.07;6.00;;;8.30;99.90;;;;;;5141340;27;19926;-61
2022/03/15 08:38:45;;;;;;;18.10;6.63;;;8.50;99.90;;;;;;5132920;27;20276;-61
2022/03/15 08:41:12;;;;;;;13.52;6.18;;;8.80;99.90;;;;;;5134091;27;20039;-61
2022/03/15 08:43:39;;;;;;;19.17;6.13;;;8.90;99.90;;;;;;5145625;27;20540;-61
2022/03/15 08:46:06;;;;;;;12.13;5.88;;;9.10;99.90;;;;;;5153292;27;20459;-61
2022/03/15 08:48:33;;;;;;;13.90;6.63;;;9.10;99.90;;;;;;5152555;27;20063;-61
2022/03/15 08:51:00;;;;;;;11.82;5.43;;;8.90;99.90;;;;;;5143192;27;20042;-61
2022/03/15 08:53:34;;;;;;;11.05;6.25;;;9.10;99.90;;;;;;5153456;27;20051;-61
2022/03/15 08:56:01;;;;;;;13.55;6.85;;;9.00;99.90;;;;;;5153346;27;20038;-61
2022/03/15 08:58:28;;;;;;;10.55;5.63;;;8.80;99.90;;;;;;5146251;27;20556;-61
2022/03/15 09:00:55;;;;;;;11.32;6.00;;;8.70;99.90;;;;;;5131482;27;20529;-60
2022/03/15 09:03:23;;;;;;;13.73;6.30;;;8.60;99.90;;;;;;5132628;27;20043;-60
2022/03/15 09:05:51;;;;;;;13.82;6.30;;;8.60;99.90;;;;;;5132556;27;20054;-60
2022/03/15 09:08:18;;;;;;;14.70;6.53;;;8.70;99.90;;;;;;5138855;27;20032;-60
2022/03/15 09:10:45;;;;;;;13.30;5.95;;;8.80;99.90;;;;;;5132196;27;20042;-61
2022/03/15 09:13:12;;;;;;;16.02;5.65;;;8.80;99.90;;;;;;5132514;27;20130;-60
2022/03/15 09:15:40;;;;;;;20.20;6.32;;;8.90;99.90;;;;;;5137610;27;20042;-60
2022/03/15 09:18:07;;;;;;;;;;;9.00;99.90;;;;;;5132801;27;20126;-61
2022/03/15 09:20:34;;;;;;;11.63;6.20;;;9.20;99.90;;;;;;5131951;27;19923;-61
2022/03/15 09:23:02;;;;;;;14.07;7.63;;;9.30;99.90;;;;;;5132506;27;20076;-61
2022/03/15 09:25:31;;;;;;;14.35;8.60;;;9.40;99.90;;;;;;5137606;27;20050;-61
2022/03/15 09:27:58;;;;;;;14.82;5.90;;;9.60;99.90;;;;;;5131931;28;20092;-60
2022/03/15 09:30:30;;;;;;;13.77;7.03;;;9.80;99.20;;;;;;5132120;28;20406;-61
2022/03/15 09:32:58;;;;;;;9.82;6.13;;;9.90;99.20;;;;;;5135421;27;20031;-60
2022/03/15 09:35:25;;;;;;;13.45;5.80;;;10.00;98.90;;;;;;5144191;27;20030;-61
2022/03/15 09:37:53;;;;;;;10.13;5.63;;;10.20;98.50;;;;;;5152826;27;20042;-61
2022/03/15 09:40:25;;;;;;;7.30;4.47;;;10.30;96.90;;;;;;5152751;27;20039;-61
2022/03/15 09:42:58;;;;;;;10.32;5.30;;;10.30;96.40;;;;;;5151068;27;20051;-61
2022/03/15 09:45:29;;;;;;;11.98;5.85;;;10.30;96.40;;;;;;5146674;27;20046;-61
2022/03/15 09:47:59;;;;;;;10.02;5.22;;;10.40;95.10;;;;;;5152572;27;20095;-60
2022/03/15 09:50:26;;;;;;;13.02;6.18;;;10.50;95.50;;;;;;5151632;27;20062;-61
2022/03/15 09:52:56;;;;;;;11.18;5.75;;;10.50;95.30;;;;;;5144080;27;20388;-61
2022/03/15 09:55:25;;;;;;;11.20;4.97;;;10.50;95.80;;;;;;5152717;27;20126;-60
2022/03/15 09:57:54;;;;;;;10.10;5.80;;;10.60;96.70;;;;;;5151967;27;20042;-61
2022/03/15 10:00:24;;;;;;;11.73;6.28;;;10.40;96.30;;;;;;5138485;27;20043;-61
2022/03/15 10:02:52;;;;;;;12.48;5.68;;;10.40;96.80;;;;;;5132007;28;20551;-61
2022/03/15 10:05:19;;;;;;;12.85;4.90;;;10.40;96.60;;;;;;5132019;28;20070;-61
2022/03/15 10:07:46;;;;;;;8.02;4.90;;;10.40;95.40;;;;;;5132760;27;20517;-61
2022/03/15 10:10:15;;;;;;;8.07;4.85;;;10.40;95.30;;;;;;5113312;28;20142;-61
2022/03/15 10:12:42;;;;;;;8.95;5.05;;;10.30;95.10;;;;;;5134292;27;20047;-61
2022/03/15 10:15:14;;;;;;;9.35;5.18;;;10.30;94.80;;;;;;5145932;27;20045;-61
2022/03/15 10:17:47;;;;;;;10.13;5.28;;;10.30;94.90;;;;;;5129136;27;20414;-60
2022/03/15 10:20:18;;;;;;;9.07;4.72;;;10.20;95.60;;;;;;5135997;27;20046;-61
2022/03/15 10:22:59;;;;;;;11.75;5.55;;;10.30;94.90;;;;;;5135814;27;20138;-60
2022/03/15 10:25:33;;;;;;;12.02;5.60;;;10.40;94.70;;;;;;5148363;27;20407;-61
2022/03/15 10:28:03;;;;;;;10.15;5.50;;;10.30;94.80;;;;;;5154754;27;20039;-61
2022/03/15 10:30:31;;;;;;;10.52;5.47;;;10.30;95.10;;;;;;5156317;27;20462;-60
2022/03/15 10:32:58;;;;;;;9.02;5.75;;;10.20;94.90;;;;;;5153200;27;20049;-61
2022/03/15 10:35:32;;;;;;;11.75;5.35;;;10.20;95.40;;;;;;5149803;27;20494;-61
2022/03/15 10:37:59;;;;;;;9.52;5.70;;;10.10;95.50;;;;;;5155861;27;20330;-61
2022/03/15 10:40:33;;;;;;;14.32;5.63;;;10.10;95.60;;;;;;5154906;27;20103;-60
2022/03/15 10:43:12;;;;;;;9.68;6.22;;;10.00;95.70;;;;;;5147155;27;20050;-61
2022/03/15 10:45:45;;;;;;;10.63;5.47;;;10.00;95.90;;;;;;5156086;27;20228;-61
2022/03/15 10:48:17;;;;;;;12.30;5.93;;;10.00;95.80;;;;;;5169170;22;20113;-55
2022/03/15 10:50:59;;;;;;;12.38;5.43;;;10.00;95.90;;;;;;5082986;28;20048;-54
2022/03/15 10:54:03;;;;;;;17.52;5.65;;;10.10;95.90;;;;;;5087545;28;20040;-53
2022/03/15 10:56:31;;;;;;;14.38;6.15;;;10.10;95.70;;;;;;5077036;28;20058;-54
2022/03/15 10:59:03;;;;;;;13.63;5.95;;;10.10;95.90;;;;;;5084318;28;20044;-55
2022/03/15 11:01:39;;;;;;;9.63;5.15;;;10.20;96.00;;;;;;5078931;28;20048;-51
2022/03/15 11:04:11;;;;;;;12.25;5.68;;;10.30;96.00;;;;;;5083759;28;20036;-52
2022/03/15 11:06:39;;;;;;;12.73;5.53;;;10.40;95.90;;;;;;5084735;28;20424;-57
2022/03/15 11:09:32;;;;;;;12.02;5.53;;;10.50;95.40;;;;;;5069727;28;20416;-53
2022/03/15 11:12:05;;;;;;;9.45;5.80;;;10.50;95.40;;;;;;5093933;28;20029;-53
2022/03/15 11:14:42;;;;;;;12.70;6.22;;;10.70;95.60;;;;;;5093300;28;20040;-52
2022/03/15 11:17:15;;;;;;;10.43;5.70;;;10.90;95.40;;;;;;5085123;28;20046;-54
2022/03/15 11:19:46;;;;;;;11.23;6.15;;;10.90;95.30;;;;;;5093224;28;20048;-54
2022/03/15 11:22:16;;;;;;;12.80;6.13;;;11.00;94.10;;;;;;5093778;28;20051;-53
2022/03/15 11:25:07;;;;;;;11.68;5.93;;;11.00;93.50;;;;;;5073171;28;20071;-55
2022/03/15 11:27:45;;;;;;;12.60;5.85;;;11.00;93.10;;;;;;5073210;28;20370;-54
2022/03/15 11:30:18;;;;;;;18.33;6.53;;;11.00;93.40;;;;;;5072870;28;20036;-55
2022/03/15 11:32:45;;;;;;;12.32;6.18;;;11.20;93.30;;;;;;5073329;28;20042;-55
2022/03/15 11:35:22;;;;;;;18.17;6.25;;;11.30;93.10;;;;;;5073244;28;20108;-54
2022/03/15 11:37:52;;;;;;;8.15;5.20;;;11.40;93.40;;;;;;5073118;28;20047;-54
2022/03/15 11:40:20;;;;;;;14.63;6.13;;;11.40;92.70;;;;;;5072971;28;20064;-54
2022/03/15 11:42:57;;;;;;;10.77;5.88;;;11.40;93.90;;;;;;5072660;28;20054;-56
2022/03/15 11:45:32;;;;;;;10.80;5.55;;;11.30;94.00;;;;;;5073054;28;20059;-54
2022/03/15 11:48:16;;;;;;;11.13;6.15;;;11.30;93.40;;;;;;5073033;28;20040;-53
2022/03/15 11:51:08;;;;;;;12.50;6.20;;;11.20;93.70;;;;;;5072902;28;20048;-56
2022/03/15 11:53:43;;;;;;;13.63;6.40;;;11.30;94.20;;;;;;5073025;28;20056;-54
2022/03/15 11:56:45;;;;;;;15.02;6.57;;;11.40;94.30;;;;;;5072668;28;20382;-54
2022/03/15 11:59:11;;;;;;;11.32;6.05;;;11.30;93.30;;;;;;5088583;28;20048;-56
2022/03/15 12:01:48;;;;;;;18.88;6.90;;;11.20;93.90;;;;;;5088896;28;20036;-54
2022/03/15 12:04:16;;;;;;;16.33;6.07;;;11.10;94.00;;;;;;5092800;28;20052;-56
2022/03/15 12:06:59;;;;;;;16.40;6.10;;;11.10;93.60;;;;;;5087852;28;20056;-53
2022/03/15 12:09:30;;;;;;;12.48;6.28;;;11.00;93.80;;;;;;5078854;28;20412;-56
2022/03/15 12:12:08;;;;;;;;;;;11.00;93.60;;;;;;5073152;28;20043;-56
2022/03/15 12:14:40;;;;;;;14.60;6.45;;;10.90;93.60;;;;;;5072314;28;19927;-55
2022/03/15 12:17:10;;;;;;;16.23;7.13;;;10.90;94.10;;;;;;5072725;28;20036;-56
2022/03/15 12:19:48;;;;;;;11.60;6.22;;;11.00;93.60;;;;;;5071874;28;20222;-55
2022/03/15 12:22:26;;;;;;;13.48;6.88;;;11.00;93.10;;;;;;5072304;28;20041;-53
2022/03/15 12:25:07;;;;;;;11.27;6.40;;;11.00;93.40;;;;;;5072335;28;20117;-56
2022/03/15 12:28:02;;;;;;;15.30;6.38;;;11.10;93.60;;;;;;5082990;28;20052;-56
2022/03/15 12:30:37;;;;;;;19.90;6.90;;;11.10;93.30;;;;;;5092274;28;20036;-56
2022/03/15 12:33:04;;;;;;;17.88;6.78;;;11.20;92.90;;;;;;5092181;28;20043;-55
2022/03/15 12:35:33;;;;;;;18.30;6.97;;;11.30;93.50;;;;;;5072838;28;20032;-54
2022/03/15 12:38:04;;;;;;;;;;;11.40;93.10;;;;;;5071883;28;20051;-53
2022/03/15 12:40:32;;;;;;;15.38;7.10;;;11.50;92.90;;;;;;5071586;28;19950;-55
2022/03/15 12:43:01;;;;;;;17.10;7.60;;;11.70;92.50;;;;;;5088243;28;20341;-55
2022/03/15 12:45:33;;;;;;;14.23;6.80;;;11.70;92.80;;;;;;5086452;28;20052;-56
2022/03/15 12:48:07;;;;;;;18.17;6.32;;;11.90;92.90;;;;;;5091896;28;20056;-57
2022/03/15 12:50:56;;;;;;;14.30;6.43;;;11.80;92.60;;;;;;5077715;28;20037;-56
2022/03/15 12:53:41;;;;;;;14.38;6.88;;;11.80;92.90;;;;;;5071514;28;20049;-56
2022/03/15 12:56:13;;;;;;;21.63;6.45;;;11.80;93.00;;;;;;5072022;28;20131;-54
2022/03/15 12:58:41;;;;;;;13.65;6.43;;;11.80;93.30;;;;;;5071951;28;20098;-56
2022/03/15 13:01:09;;;;;;;19.92;6.35;;;11.70;93.30;;;;;;5071469;28;20072;-57